createdAt,value
2023-01-20T00:02:16.465Z,99521.88
2023-01-20T00:07:18.056Z,99515.75
2023-01-20T00:12:19.643Z,99518.50
2023-01-20T00:17:21.208Z,99526.81
2023-01-20T00:22:22.812Z,99525.25
2023-01-20T00:27:24.379Z,99537.00
2023-01-20T00:32:25.900Z,99535.34
2023-01-20T00:37:27.485Z,99542.66
2023-01-20T00:42:29.036Z,99554.56
2023-01-20T00:47:30.642Z,99550.72
2023-01-20T00:52:32.204Z,99559.63
2023-01-20T00:57:33.788Z,99569.59
2023-01-20T01:02:39.964Z,99584.88
2023-01-20T01:07:42.246Z,99598.19
2023-01-20T01:12:43.833Z,99603.63
2023-01-20T01:17:45.597Z,99610.56
2023-01-20T01:22:47.217Z,99612.03
2023-01-20T01:27:48.772Z,99625.75
2023-01-20T01:32:50.346Z,99629.81
2023-01-20T01:37:51.980Z,99627.91
2023-01-20T01:42:53.611Z,99631.25
2023-01-20T01:48:10.619Z,99637.28
2023-01-20T01:53:13.818Z,99634.88
2023-01-20T01:58:17.863Z,99638.00
2023-01-20T02:03:20.313Z,99639.94
2023-01-20T02:08:21.982Z,99641.59
2023-01-20T02:13:23.657Z,99649.78
2023-01-20T02:18:53.840Z,99647.63
2023-01-20T02:24:12.339Z,99651.69
2023-01-20T02:29:26.419Z,99649.53
2023-01-20T02:34:37.056Z,99655.78
2023-01-20T02:40:05.179Z,99662.53
2023-01-20T02:45:12.799Z,99665.88
2023-01-20T02:50:38.557Z,99668.78
2023-01-20T02:55:46.873Z,99671.81
2023-01-20T03:00:52.190Z,99676.22
2023-01-20T03:05:56.359Z,99690.16
2023-01-20T03:11:06.312Z,99690.28
2023-01-20T03:16:10.799Z,99693.06
2023-01-20T03:21:12.981Z,99699.66
2023-01-20T03:26:16.600Z,99700.13
2023-01-20T03:31:24.972Z,99706.25
2023-01-20T03:36:29.060Z,99720.44
2023-01-20T03:41:33.612Z,99728.84
2023-01-20T03:46:59.882Z,99725.56
2023-01-20T03:52:09.210Z,99724.06
2023-01-20T03:57:20.169Z,99731.59
2023-01-20T04:02:22.568Z,99736.38
2023-01-20T04:07:25.651Z,99738.09
2023-01-20T04:12:27.288Z,99734.78
2023-01-20T04:17:29.178Z,99751.66
2023-01-20T04:22:46.726Z,99754.06
2023-01-20T04:27:48.293Z,99752.94
2023-01-20T04:32:49.861Z,99757.84
2023-01-20T04:37:51.461Z,99765.56
2023-01-20T04:42:53.062Z,99777.09
2023-01-20T04:47:54.777Z,99775.03
2023-01-20T04:52:56.620Z,99780.97
2023-01-20T04:57:58.188Z,99783.81
2023-01-20T05:02:59.833Z,99789.88
2023-01-20T05:08:01.508Z,99799.59
2023-01-20T05:13:03.277Z,99812.94
2023-01-20T05:18:04.877Z,99813.91
2023-01-20T05:23:07.043Z,99821.38
2023-01-20T05:28:08.699Z,99827.38
2023-01-20T05:33:10.276Z,99819.53
2023-01-20T05:38:11.851Z,99829.09
2023-01-20T05:43:13.412Z,99835.81
2023-01-20T05:48:14.967Z,99842.47
2023-01-20T05:53:18.082Z,99834.94
2023-01-20T05:58:19.717Z,99849.53
2023-01-20T06:03:21.503Z,99858.09
2023-01-20T06:08:23.068Z,99858.84
2023-01-20T06:13:24.634Z,99865.53
2023-01-20T06:18:26.237Z,99860.75
2023-01-20T06:23:27.882Z,99874.09
2023-01-20T06:28:29.596Z,99867.97
2023-01-20T06:33:31.921Z,99879.59
2023-01-20T06:38:35.284Z,99892.72
2023-01-20T06:43:40.081Z,99890.56
2023-01-20T06:48:42.593Z,99897.13
2023-01-20T06:53:44.718Z,99907.13
2023-01-20T06:58:46.353Z,99902.44
2023-01-20T07:03:47.947Z,99909.88
2023-01-20T07:08:49.570Z,99919.50
2023-01-20T07:13:51.150Z,99935.69
2023-01-20T07:18:53.681Z,99945.44
2023-01-20T07:23:55.603Z,99949.50
2023-01-20T07:28:59.987Z,99963.53
2023-01-20T07:34:01.583Z,99969.28
2023-01-20T07:39:03.183Z,99976.88
2023-01-20T07:44:04.865Z,99986.72
2023-01-20T07:49:06.499Z,99998.41
2023-01-20T07:54:11.509Z,100007.75
2023-01-20T07:59:13.155Z,100003.06
2023-01-20T08:04:14.772Z,100009.22
2023-01-20T08:09:16.432Z,100023.16
2023-01-20T08:14:18.087Z,100023.81
2023-01-20T08:19:19.706Z,100027.72
2023-01-20T08:24:21.305Z,100026.34
2023-01-20T08:29:22.992Z,100040.28
2023-01-20T08:34:24.550Z,100046.44
2023-01-20T08:39:26.124Z,100058.03
2023-01-20T08:44:27.727Z,100064.72
2023-01-20T08:49:29.785Z,100072.66
2023-01-20T08:54:34.429Z,100077.50
2023-01-20T08:59:35.976Z,100080.25
2023-01-20T09:04:37.983Z,100075.63
2023-01-20T09:09:39.569Z,100079.81
2023-01-20T09:14:41.228Z,100090.16
2023-01-20T09:19:42.774Z,100099.38
2023-01-20T09:24:44.348Z,100099.94
2023-01-20T09:29:45.896Z,100103.97
2023-01-20T09:34:47.525Z,100100.75
2023-01-20T09:40:07.914Z,100107.97
2023-01-20T09:45:27.287Z,100110.38
2023-01-20T09:50:52.996Z,100112.16
2023-01-20T09:56:00.854Z,100106.31
2023-01-20T10:01:32.897Z,100111.72
2023-01-20T10:06:42.733Z,100116.28
2023-01-20T10:11:46.269Z,100108.97
2023-01-20T10:16:55.482Z,100118.69
2023-01-20T10:22:26.145Z,100118.69
2023-01-20T10:27:29.652Z,100119.44
2023-01-20T10:32:39.218Z,100124.22
2023-01-20T10:37:41.420Z,100121.25
2023-01-20T10:42:48.255Z,100130.97
2023-01-20T10:48:09.591Z,100128.19
2023-01-20T10:53:43.404Z,100131.56
2023-01-20T10:58:46.716Z,100143.25
2023-01-20T11:03:49.588Z,100143.53
2023-01-20T11:08:52.492Z,100150.81
2023-01-20T11:13:54.207Z,100148.75
2023-01-20T11:19:04.423Z,100158.25
2023-01-20T11:24:58.956Z,100151.66
2023-01-20T11:30:04.696Z,100164.88
2023-01-20T11:35:25.075Z,100162.81
2023-01-20T11:40:28.537Z,100168.81
2023-01-20T11:45:36.494Z,100179.84
2023-01-20T11:50:46.550Z,100185.38
2023-01-20T11:55:57.324Z,100193.69
2023-01-20T12:01:02.232Z,100194.69
2023-01-20T12:06:15.055Z,100201.69
2023-01-20T12:11:25.263Z,100210.69
2023-01-20T12:16:28.802Z,100211.84
2023-01-20T12:21:36.388Z,100217.66
2023-01-20T12:26:37.995Z,100227.75
2023-01-20T12:31:39.761Z,100233.25
2023-01-20T12:37:33.342Z,100228.59
2023-01-20T12:42:59.385Z,100236.03
2023-01-20T12:48:31.098Z,100243.41
2023-01-20T12:53:51.152Z,100242.44
2023-01-20T12:59:23.428Z,100255.09
2023-01-20T13:04:45.259Z,100262.47
2023-01-20T13:09:56.880Z,100258.88
2023-01-20T13:15:19.112Z,100261.03
2023-01-20T13:20:25.832Z,100263.53
2023-01-20T13:25:28.104Z,100261.84
2023-01-20T13:30:50.914Z,100272.03
2023-01-20T13:35:52.662Z,100279.41
2023-01-20T13:40:55.830Z,100281.84
2023-01-20T13:46:03.284Z,100286.81
2023-01-20T13:51:26.713Z,100285.34
2023-01-20T13:56:30.571Z,100287.03
2023-01-20T14:01:33.607Z,100296.03
2023-01-20T14:06:35.987Z,100303.34
2023-01-20T14:11:49.540Z,100304.72
2023-01-20T14:16:51.538Z,100304.63
2023-01-20T14:21:57.991Z,100311.66
2023-01-20T14:27:17.382Z,100327.34
2023-01-20T14:32:22.496Z,100327.47
2023-01-20T14:37:33.734Z,100335.88
2023-01-20T14:42:36.189Z,100336.09
2023-01-20T14:47:38.023Z,100340.16
2023-01-20T14:52:39.780Z,100344.19
2023-01-20T14:57:43.590Z,100364.19
2023-01-20T15:03:11.954Z,100366.72
2023-01-20T15:08:24.331Z,100384.34
2023-01-20T15:13:28.021Z,100401.28
2023-01-20T15:18:29.631Z,100399.22
2023-01-20T15:23:34.775Z,100407.03
2023-01-20T15:28:43.772Z,100408.97
2023-01-20T15:33:45.457Z,100416.09
2023-01-20T15:38:47.385Z,100424.56
2023-01-20T15:43:51.298Z,100430.72
2023-01-20T15:48:52.876Z,100427.59
2023-01-20T15:53:54.464Z,100435.97
2023-01-20T15:58:56.561Z,100438.16
2023-01-20T16:03:58.302Z,100437.34
2023-01-20T16:09:11.352Z,100441.88
2023-01-20T16:14:12.987Z,100444.53
2023-01-20T16:19:14.898Z,100453.34
2023-01-20T16:24:16.488Z,100465.38
2023-01-20T16:29:18.058Z,100467.00
2023-01-20T16:34:19.659Z,100471.94
2023-01-20T16:39:21.226Z,100480.03
2023-01-20T16:44:22.767Z,100486.16
2023-01-20T16:49:24.371Z,100498.63
2023-01-20T16:54:26.036Z,100505.34
2023-01-20T16:59:27.638Z,100521.22
2023-01-20T17:04:30.509Z,100524.91
2023-01-20T17:09:32.186Z,100528.22
2023-01-20T17:14:33.830Z,100536.88
2023-01-20T17:19:35.423Z,100535.09
2023-01-20T17:24:39.189Z,100536.72
2023-01-20T17:29:40.930Z,100542.00
2023-01-20T17:34:42.489Z,100550.88
2023-01-20T17:39:44.095Z,100552.38
2023-01-20T17:44:45.674Z,100563.88
2023-01-20T17:49:47.332Z,100573.16
2023-01-20T17:54:49.581Z,100571.94
2023-01-20T17:59:51.359Z,100578.25
2023-01-20T18:04:52.987Z,100576.00
2023-01-20T18:09:54.588Z,100579.78
2023-01-20T18:14:57.702Z,100594.38
2023-01-20T18:19:59.265Z,100598.16
2023-01-20T18:25:00.833Z,100602.69
2023-01-20T18:30:02.450Z,100600.72
2023-01-20T18:35:04.268Z,100603.72
2023-01-20T18:40:06.501Z,100602.59
2023-01-20T18:45:08.922Z,100607.66
2023-01-20T18:50:11.798Z,100603.63
2023-01-20T18:55:13.470Z,100612.50
2023-01-20T19:00:15.416Z,100616.84
2023-01-20T19:05:17.125Z,100619.84
2023-01-20T19:10:18.879Z,100623.84
2023-01-20T19:15:20.583Z,100618.13
2023-01-20T19:20:22.188Z,100629.81
2023-01-20T19:25:29.470Z,100624.28
2023-01-20T19:30:31.324Z,100629.16
2023-01-20T19:35:33.664Z,100624.66
2023-01-20T19:40:35.265Z,100624.84
2023-01-20T19:45:45.429Z,100631.66
2023-01-20T19:50:47.729Z,100638.94
2023-01-20T19:55:49.551Z,100635.81
2023-01-20T20:00:51.113Z,100648.06
2023-01-20T20:05:52.753Z,100657.34
2023-01-20T20:10:54.669Z,100662.59
2023-01-20T20:16:03.517Z,100665.19
2023-01-20T20:21:05.882Z,100674.94
2023-01-20T20:26:11.703Z,100678.91
2023-01-20T20:31:13.316Z,100684.59
2023-01-20T20:36:15.694Z,100694.31
2023-01-20T20:41:17.755Z,100696.13
2023-01-20T20:46:19.428Z,100710.41
2023-01-20T20:51:23.227Z,100710.34
2023-01-20T20:56:27.826Z,100713.16
2023-01-20T21:01:31.573Z,100713.66
2023-01-20T21:06:33.676Z,100725.59
2023-01-20T21:11:37.858Z,100728.69
2023-01-20T21:16:40.041Z,100730.09
2023-01-20T21:21:41.760Z,100730.44
2023-01-20T21:26:43.427Z,100729.06
2023-01-20T21:31:46.381Z,100743.09
2023-01-20T21:36:47.980Z,100755.66
2023-01-20T21:41:49.609Z,100754.94
2023-01-20T21:46:51.272Z,100757.72
2023-01-20T21:52:12.227Z,100753.22
2023-01-20T21:57:14.600Z,100762.19
2023-01-20T22:02:16.365Z,100766.94
2023-01-20T22:07:18.084Z,100767.97
2023-01-20T22:12:19.652Z,100772.47
2023-01-20T22:17:21.233Z,100781.72
2023-01-20T22:22:23.533Z,100789.59
2023-01-20T22:27:25.127Z,100783.97
2023-01-20T22:32:27.117Z,100794.69
2023-01-20T22:37:31.097Z,100794.03
2023-01-20T22:42:32.700Z,100788.75
2023-01-20T22:47:34.356Z,100783.47
2023-01-20T22:52:36.004Z,100791.03
2023-01-20T22:57:37.786Z,100795.75
2023-01-20T23:02:39.427Z,100792.03
2023-01-20T23:07:41.066Z,100796.59
2023-01-20T23:12:42.634Z,100792.97
2023-01-20T23:17:44.330Z,100797.81
2023-01-20T23:22:45.875Z,100802.44
2023-01-20T23:27:47.427Z,100807.94
2023-01-20T23:32:49.039Z,100808.41
2023-01-20T23:37:50.748Z,100815.81
2023-01-20T23:42:52.320Z,100816.59
2023-01-20T23:47:54.062Z,100821.09
2023-01-20T23:52:55.654Z,100814.75
2023-01-20T23:57:57.223Z,100817.06
